Time;durP1;ratioP1;P1;durP2;ratioP2;P2;SDS_P1;SDS_P2;PMS_P1;PMS_P2;Temp;Humidity;BMP_temperature;BMP_pressure;BME280_temperature;BME280_humidity;BME280_pressure;Samples;Min_cycle;Max_cycle;Signal;HPM_P1;HPM_P2
2023/09/26 00:01:19;;;;;;;;;;;;;;;25.85;50.71;100615.22;4275301;33;33999;-76
2023/09/26 00:03:46;;;;;;;;;;;;;;;26.01;50.36;100618.72;4273355;33;33529;-75
2023/09/26 00:06:20;;;;;;;;;;;;;;;25.96;50.44;100625.84;4273542;33;34042;-78
2023/09/26 00:08:48;;;;;;;;;;;;;;;26.12;49.65;100613.34;4273934;33;34229;-77
2023/09/26 00:11:15;;;;;;;;;;;;;;;26.41;48.91;100618.47;4274124;33;35174;-74
2023/09/26 00:13:43;;;;;;;;;;;;;;;26.27;49.09;100621.22;4276569;33;33135;-76
2023/09/26 00:16:11;;;;;;;;;;;;;;;26.43;48.94;100615.81;4276602;33;34887;-77
2023/09/26 00:18:40;;;;;;;;;;;;;;;25.83;50.19;100624.09;4276440;33;34201;-74
2023/09/26 00:21:08;;;;;;;;;;;;;;;25.87;50.26;100625.84;4268783;33;34387;-78
2023/09/26 00:23:36;;;;;;;;;;;;;;;26.09;49.90;100619.53;4252366;33;31747;-76
2023/09/26 00:26:04;;;;;;;;;;;;;;;25.93;50.18;100620.53;4275362;33;34179;-77
2023/09/26 00:28:31;;;;;;;;;;;;;;;25.77;50.56;100616.16;4275221;33;34021;-76
2023/09/26 00:31:03;;;;;;;;;;;;;;;25.68;50.76;100612.66;4274604;33;34288;-78
2023/09/26 00:33:32;;;;;;;;;;;;;;;25.84;50.53;100617.88;4276289;33;33180;-76
2023/09/26 00:36:07;;;;;;;;;;;;;;;25.72;50.43;100616.19;4277804;33;34361;-78
2023/09/26 00:38:35;;;;;;;;;;;;;;;26.45;48.71;100614.88;4274500;33;34894;-80
2023/09/26 00:41:03;;;;;;;;;;;;;;;26.01;49.71;100616.06;4261669;33;34369;-77
2023/09/26 00:43:30;;;;;;;;;;;;;;;26.38;48.68;100615.81;4275635;33;34330;-72
2023/09/26 00:45:59;;;;;;;;;;;;;;;26.04;49.31;100618.72;4269550;33;34090;-78
2023/09/26 00:48:27;;;;;;;;;;;;;;;25.64;50.33;100613.56;4275202;33;34797;-75
2023/09/26 00:50:55;;;;;;;;;;;;;;;25.09;52.21;100616.31;4276156;33;34554;-75
2023/09/26 00:53:23;;;;;;;;;;;;;;;24.75;53.29;100616.37;4276494;33;33504;-74
2023/09/26 00:55:51;;;;;;;;;;;;;;;25.30;51.99;100605.72;4263984;33;34416;-73
2023/09/26 00:58:18;;;;;;;;;;;;;;;25.25;52.08;100606.63;4261967;33;34015;-75
2023/09/26 01:00:45;;;;;;;;;;;;;;;25.63;50.88;100611.81;4263569;33;34399;-74
2023/09/26 01:03:13;;;;;;;;;;;;;;;25.62;51.01;100607.38;4265864;33;33421;-76
2023/09/26 01:05:41;;;;;;;;;;;;;;;25.70;50.86;100610.88;4276522;33;33954;-72
2023/09/26 01:08:08;;;;;;;;;;;;;;;26.29;49.20;100599.97;4276969;33;33648;-74
2023/09/26 01:10:36;;;;;;;;;;;;;;;25.65;50.89;100607.38;4261578;33;34305;-76
2023/09/26 01:13:04;;;;;;;;;;;;;;;24.92;52.54;100608.44;4254144;33;33025;-77
2023/09/26 01:15:39;;;;;;;;;;;;;;;24.89;52.76;100604.00;4276594;33;33071;-77
2023/09/26 01:18:08;;;;;;;;;;;;;;;25.11;52.21;100614.56;4273609;33;34923;-75
2023/09/26 01:20:38;;;;;;;;;;;;;;;25.41;51.49;100607.47;4269111;33;34016;-77
2023/09/26 01:23:06;;;;;;;;;;;;;;;25.42;51.36;100611.88;4277441;33;34142;-78
2023/09/26 01:25:35;;;;;;;;;;;;;;;25.52;50.75;100610.97;4280195;33;34190;-73
2023/09/26 01:28:07;;;;;;;;;;;;;;;24.85;52.52;100610.19;4263086;33;34014;-75
2023/09/26 01:30:35;;;;;;;;;;;;;;;25.34;51.11;100611.00;4272862;33;34301;-74
2023/09/26 01:33:03;;;;;;;;;;;;;;;25.26;51.23;100609.25;4282355;33;35056;-77
2023/09/26 01:35:30;;;;;;;;;;;;;;;25.34;51.34;100605.72;4276534;33;33700;-75
2023/09/26 01:37:58;;;;;;;;;;;;;;;25.31;51.31;100604.84;4277716;33;32994;-76
2023/09/26 01:40:25;;;;;;;;;;;;;;;25.50;50.59;100608.31;4267986;33;34965;-72
2023/09/26 01:42:53;;;;;;;;;;;;;;;25.33;50.71;100598.66;4281441;33;33050;-76
2023/09/26 01:45:20;;;;;;;;;;;;;;;25.37;50.54;100608.38;4269345;33;34921;-76
2023/09/26 01:47:48;;;;;;;;;;;;;;;25.57;49.77;100603.84;4278675;33;34830;-75
2023/09/26 01:50:17;;;;;;;;;;;;;;;25.33;50.26;100609.25;4274448;33;34169;-74
2023/09/26 01:52:44;;;;;;;;;;;;;;;25.08;50.85;100606.63;4282389;33;33600;-75
2023/09/26 01:55:13;;;;;;;;;;;;;;;25.03;51.09;100609.25;4264645;33;33988;-75
2023/09/26 01:57:41;;;;;;;;;;;;;;;24.87;51.69;100605.75;4275367;33;34909;-74
2023/09/26 02:00:12;;;;;;;;;;;;;;;24.79;51.13;100607.53;4276727;33;34109;-72
2023/09/26 02:02:43;;;;;;;;;;;;;;;24.55;51.74;100610.19;4277893;33;34343;-73
2023/09/26 02:05:12;;;;;;;;;;;;;;;24.47;52.83;100610.16;4284516;33;33767;-77
2023/09/26 02:07:39;;;;;;;;;;;;;;;24.59;51.99;100604.91;4278370;33;34283;-77
2023/09/26 02:10:07;;;;;;;;;;;;;;;24.49;52.50;100604.00;4274602;33;34313;-78
2023/09/26 02:12:35;;;;;;;;;;;;;;;24.66;51.80;100600.47;4280893;33;33423;-78
2023/09/26 02:15:05;;;;;;;;;;;;;;;23.78;54.62;100612.59;4267443;33;34761;-77
2023/09/26 02:17:35;;;;;;;;;;;;;;;24.37;53.44;100614.56;4269628;33;34085;-78
2023/09/26 02:20:06;;;;;;;;;;;;;;;24.28;53.29;100614.53;4280000;33;34367;-74
2023/09/26 02:22:35;;;;;;;;;;;;;;;24.56;52.85;100611.97;4284865;33;33466;-73
2023/09/26 02:25:02;;;;;;;;;;;;;;;24.40;52.84;100603.97;4278340;33;83238;-75
2023/09/26 02:27:30;;;;;;;;;;;;;;;24.89;51.42;100601.34;4277646;33;33800;-77
2023/09/26 02:29:58;;;;;;;;;;;;;;;24.24;53.13;100613.69;4270630;33;34247;-78
2023/09/26 02:32:26;;;;;;;;;;;;;;;24.96;51.16;100604.00;4280749;33;33362;-77
2023/09/26 02:34:53;;;;;;;;;;;;;;;24.37;52.19;100617.19;4275470;33;34164;-77
2023/09/26 02:37:20;;;;;;;;;;;;;;;24.44;52.17;100608.38;4263682;33;34151;-78
2023/09/26 02:39:48;;;;;;;;;;;;;;;24.31;52.28;100614.56;4276044;33;35060;-75
2023/09/26 02:42:15;;;;;;;;;;;;;;;24.30;52.00;100616.31;4281157;33;34350;-78
2023/09/26 02:44:42;;;;;;;;;;;;;;;24.69;50.75;100619.03;4266316;33;35154;-75
2023/09/26 02:47:10;;;;;;;;;;;;;;;24.81;50.64;100615.50;4283708;33;33825;-76
2023/09/26 02:49:37;;;;;;;;;;;;;;;24.83;50.62;100617.25;4268049;33;35165;-77
2023/09/26 02:52:04;;;;;;;;;;;;;;;24.66;51.12;100617.25;4278674;33;32949;-75
2023/09/26 02:54:32;;;;;;;;;;;;;;;24.82;50.67;100612.84;4282888;33;34911;-76
2023/09/26 02:56:59;;;;;;;;;;;;;;;24.96;49.55;100619.91;4264560;33;34027;-75
2023/09/26 02:59:28;;;;;;;;;;;;;;;24.47;51.39;100610.16;4285788;33;34313;-78
2023/09/26 03:01:56;;;;;;;;;;;;;;;24.90;50.51;100611.06;4266643;33;34142;-76
2023/09/26 03:04:24;;;;;;;;;;;;;;;24.28;51.93;100619.81;4285671;33;34818;-76
2023/09/26 03:06:51;;;;;;;;;;;;;;;24.56;51.83;100614.62;4275216;33;34903;-78
2023/09/26 03:09:19;;;;;;;;;;;;;;;24.91;50.76;100611.94;4269710;33;35020;-73
2023/09/26 03:11:46;;;;;;;;;;;;;;;24.00;52.94;100618.91;4276679;33;33416;-74
2023/09/26 03:14:13;;;;;;;;;;;;;;;24.24;52.08;100618.97;4278816;33;32992;-76
2023/09/26 03:16:41;;;;;;;;;;;;;;;24.25;52.22;100622.50;4274783;33;34219;-75
2023/09/26 03:19:09;;;;;;;;;;;;;;;24.25;52.44;100612.78;4275116;33;34647;-77
2023/09/26 03:21:37;;;;;;;;;;;;;;;24.54;51.97;100606.66;4276761;33;34501;-74
2023/09/26 03:24:05;;;;;;;;;;;;;;;24.52;52.15;100606.66;4268488;33;34084;-76
2023/09/26 03:26:32;;;;;;;;;;;;;;;24.89;51.33;100609.28;4274117;33;34166;-77
2023/09/26 03:28:59;;;;;;;;;;;;;;;24.97;51.33;100609.28;4283861;33;34948;-73
2023/09/26 03:31:28;;;;;;;;;;;;;;;25.36;50.30;100617.19;4269780;33;33402;-75
2023/09/26 03:33:56;;;;;;;;;;;;;;;25.16;50.63;100612.78;4285972;33;34805;-75
2023/09/26 03:36:23;;;;;;;;;;;;;;;24.86;50.92;100617.25;4274471;33;35049;-74
2023/09/26 03:38:50;;;;;;;;;;;;;;;24.35;52.60;100613.66;4284414;33;33977;-74
2023/09/26 03:41:18;;;;;;;;;;;;;;;24.99;51.08;100620.75;4265444;33;33253;-74
2023/09/26 03:43:45;;;;;;;;;;;;;;;25.26;50.23;100614.56;4264773;33;34210;-77
2023/09/26 03:46:12;;;;;;;;;;;;;;;25.48;49.81;100618.03;4270111;33;33587;-74
2023/09/26 03:48:40;;;;;;;;;;;;;;;25.17;50.79;100614.56;4283411;33;33948;-78
2023/09/26 03:51:11;;;;;;;;;;;;;;;25.54;50.03;100613.63;4286253;33;33152;-74
2023/09/26 03:53:39;;;;;;;;;;;;;;;25.76;49.35;100619.72;4285623;33;34752;-76
2023/09/26 03:56:06;;;;;;;;;;;;;;;25.42;50.41;100611.88;4283342;33;33740;-74
2023/09/26 03:58:34;;;;;;;;;;;;;;;25.49;50.25;100618.91;4274265;33;33994;-78
2023/09/26 04:01:11;;;;;;;;;;;;;;;25.01;51.50;100615.47;4281286;33;33515;-75
2023/09/26 04:03:40;;;;;;;;;;;;;;;25.06;51.53;100616.34;4277961;33;34101;-75
2023/09/26 04:06:07;;;;;;;;;;;;;;;25.53;50.51;100607.41;4280173;33;34869;-75
2023/09/26 04:08:35;;;;;;;;;;;;;;;25.52;50.34;100610.97;4280148;33;35147;-74
2023/09/26 04:11:02;;;;;;;;;;;;;;;25.48;50.42;100606.56;4263002;33;34876;-75
2023/09/26 04:13:30;;;;;;;;;;;;;;;25.61;50.15;100618.91;4277451;33;34833;-74
2023/09/26 04:15:57;;;;;;;;;;;;;;;25.78;49.95;100615.28;4272915;33;34192;-76
2023/09/26 04:18:27;;;;;;;;;;;;;;;25.72;49.99;100612.66;4282536;33;34363;-76
2023/09/26 04:20:54;;;;;;;;;;;;;;;25.85;49.68;100614.38;4266923;33;33876;-73
2023/09/26 04:23:21;;;;;;;;;;;;;;;25.31;51.11;100611.91;4284689;33;34056;-74
2023/09/26 04:25:49;;;;;;;;;;;;;;;25.50;50.68;100618.03;4271272;33;33571;-72
2023/09/26 04:28:16;;;;;;;;;;;;;;;25.48;50.77;100619.81;4274133;33;34338;-76
2023/09/26 04:30:43;;;;;;;;;;;;;;;26.01;49.48;100613.41;4272209;33;32838;-75
2023/09/26 04:33:11;;;;;;;;;;;;;;;25.78;50.01;100623.22;4281991;33;34081;-80
2023/09/26 04:35:38;;;;;;;;;;;;;;;25.82;49.89;100624.97;4278718;33;33896;-76
2023/09/26 04:38:05;;;;;;;;;;;;;;;25.89;49.73;100621.41;4278124;33;34492;-74
2023/09/26 04:40:33;;;;;;;;;;;;;;;25.86;49.95;100626.72;4275247;33;34042;-79
2023/09/26 04:43:02;;;;;;;;;;;;;;;25.88;49.90;100624.94;4283030;33;34468;-76
2023/09/26 04:45:33;;;;;;;;;;;;;;;25.66;50.57;100632.12;4282498;33;34252;-76
2023/09/26 04:48:00;;;;;;;;;;;;;;;26.33;48.80;100638.00;4279260;33;35204;-77
2023/09/26 04:50:28;;;;;;;;;;;;;;;26.30;48.88;100638.91;4280850;33;33527;-75
2023/09/26 04:52:56;;;;;;;;;;;;;;;26.05;49.21;100641.69;4271754;33;33817;-73
2023/09/26 04:55:24;;;;;;;;;;;;;;;26.03;49.32;100640.81;4268633;33;34199;-73
2023/09/26 04:57:51;;;;;;;;;;;;;;;25.57;50.03;100638.34;4266181;33;35064;-74
2023/09/26 05:00:19;;;;;;;;;;;;;;;25.77;49.87;100642.69;4279449;33;33366;-74
2023/09/26 05:02:50;;;;;;;;;;;;;;;25.73;49.79;100639.19;4269679;33;34353;-76
2023/09/26 05:05:17;;;;;;;;;;;;;;;26.05;48.96;100639.03;4274040;33;34122;-74
2023/09/26 05:07:44;;;;;;;;;;;;;;;25.94;49.33;100648.88;4274641;33;34663;-77
2023/09/26 05:10:12;;;;;;;;;;;;;;;26.03;49.11;100654.09;4283897;33;33339;-74
2023/09/26 05:12:42;;;;;;;;;;;;;;;24.98;51.68;100649.94;4274685;33;35054;-76
2023/09/26 05:15:12;;;;;;;;;;;;;;;25.62;50.21;100641.88;4284479;33;33364;-75
2023/09/26 05:17:40;;;;;;;;;;;;;;;25.72;50.03;100633.87;4282185;33;33449;-76
2023/09/26 05:20:11;;;;;;;;;;;;;;;25.73;50.09;100640.94;4265527;33;32735;-77
2023/09/26 05:22:40;;;;;;;;;;;;;;;25.66;50.51;100638.31;4287066;33;34452;-74
2023/09/26 05:25:07;;;;;;;;;;;;;;;26.06;49.55;100645.25;4280485;33;35016;-75
2023/09/26 05:27:35;;;;;;;;;;;;;;;25.96;49.74;100635.56;4281495;33;34230;-77
2023/09/26 05:30:03;;;;;;;;;;;;;;;25.87;49.96;100645.31;4286158;33;33276;-75
2023/09/26 05:32:31;;;;;;;;;;;;;;;25.91;49.84;100640.91;4277975;33;34896;-77
2023/09/26 05:34:58;;;;;;;;;;;;;;;26.25;48.98;100651.31;4274520;33;33942;-74
2023/09/26 05:37:26;;;;;;;;;;;;;;;26.26;48.84;100643.34;4275357;33;35341;-75
2023/09/26 05:39:53;;;;;;;;;;;;;;;26.24;48.94;100649.56;4276174;33;33443;-74
2023/09/26 05:42:21;;;;;;;;;;;;;;;26.28;48.88;100652.19;4272207;33;34149;-75
2023/09/26 05:44:48;;;;;;;;;;;;;;;26.36;48.64;100644.16;4273843;33;34423;-74
2023/09/26 05:47:15;;;;;;;;;;;;;;;26.35;48.73;100653.06;4275023;33;34568;-76
2023/09/26 05:49:44;;;;;;;;;;;;;;;26.73;47.93;100649.25;4281039;33;33154;-78
2023/09/26 05:52:11;;;;;;;;;;;;;;;26.68;47.66;100656.38;4281072;33;34847;-72
2023/09/26 05:54:39;;;;;;;;;;;;;;;26.68;47.61;100648.41;4277059;33;34205;-76
2023/09/26 05:57:07;;;;;;;;;;;;;;;26.83;47.46;100661.59;4271632;33;35040;-73
2023/09/26 05:59:34;;;;;;;;;;;;;;;26.47;48.14;100658.25;4280962;33;34161;-75
2023/09/26 06:02:02;;;;;;;;;;;;;;;26.22;48.86;100656.66;4274076;33;34130;-74
2023/09/26 06:04:29;;;;;;;;;;;;;;;26.68;47.50;100645.75;4277595;33;34084;-74
2023/09/26 06:06:59;;;;;;;;;;;;;;;26.84;47.25;100647.37;4271104;33;35292;-76
2023/09/26 06:09:26;;;;;;;;;;;;;;;26.79;46.92;100643.91;4269924;33;33527;-76
2023/09/26 06:11:54;;;;;;;;;;;;;;;26.54;47.63;100652.91;4270564;33;32563;-77
2023/09/26 06:14:21;;;;;;;;;;;;;;;27.05;46.59;100643.66;4272376;33;33599;-77
2023/09/26 06:16:48;;;;;;;;;;;;;;;26.79;47.21;100648.31;4276267;33;34590;-74
2023/09/26 06:19:16;;;;;;;;;;;;;;;27.38;45.73;100648.69;4270068;33;34382;-75
2023/09/26 06:21:43;;;;;;;;;;;;;;;27.41;45.77;100651.28;4279176;33;33025;-75
2023/09/26 06:24:10;;;;;;;;;;;;;;;27.56;45.07;100643.13;4278258;33;34858;-74
2023/09/26 06:26:38;;;;;;;;;;;;;;;27.45;45.20;100645.94;4259891;33;34233;-73
2023/09/26 06:29:05;;;;;;;;;;;;;;;27.31;45.60;100641.66;4277326;33;33231;-75
2023/09/26 06:31:33;;;;;;;;;;;;;;;27.63;44.83;100643.97;4273749;33;34253;-75
2023/09/26 06:34:01;;;;;;;;;;;;;;;27.32;45.42;100644.31;4273866;33;34986;-74
2023/09/26 06:36:37;;;;;;;;;;;;;;;27.46;45.17;100646.81;4277193;33;34203;-75
2023/09/26 06:39:05;;;;;;;;;;;;;;;27.35;45.66;100636.31;4277939;33;33304;-75
2023/09/26 06:41:32;;;;;;;;;;;;;;;27.18;45.95;100643.53;4276079;33;34833;-73
2023/09/26 06:44:00;;;;;;;;;;;;;;;27.55;45.16;100646.72;4263681;33;34137;-75
2023/09/26 06:46:28;;;;;;;;;;;;;;;27.46;45.37;100646.81;4277047;33;34972;-78
2023/09/26 06:48:55;;;;;;;;;;;;;;;27.39;45.46;100650.44;4276507;33;33330;-80
2023/09/26 06:51:24;;;;;;;;;;;;;;;27.52;44.89;100649.38;4278162;33;34301;-79
2023/09/26 06:53:51;;;;;;;;;;;;;;;27.66;44.63;100643.91;4277653;33;34369;-75
2023/09/26 06:56:20;;;;;;;;;;;;;;;27.87;44.01;100647.19;4271599;33;34272;-77
2023/09/26 06:58:47;;;;;;;;;;;;;;;27.75;44.43;100648.25;4275287;33;34258;-72
2023/09/26 07:04:17;;;;;;;;;;;;;;;27.56;44.99;100648.44;4274708;33;34975;-73
2023/09/26 07:06:45;;;;;;;;;;;;;;;28.21;43.58;100653.00;4275993;33;34881;-73
2023/09/26 07:09:13;;;;;;;;;;;;;;;28.24;43.17;100647.63;4275139;33;32311;-73
2023/09/26 07:11:40;;;;;;;;;;;;;;;28.09;43.82;100654.03;4276278;33;34590;-73
2023/09/26 07:14:08;;;;;;;;;;;;;;;27.78;44.43;100658.88;4274090;33;33947;-73
2023/09/26 07:16:35;;;;;;;;;;;;;;;28.50;42.66;100655.22;4258642;33;34149;-72
2023/09/26 07:19:03;;;;;;;;;;;;;;;28.49;42.65;100647.25;4275130;33;33399;-74
2023/09/26 07:21:30;;;;;;;;;;;;;;;28.54;42.38;100650.75;4275110;33;35116;-72
2023/09/26 07:23:59;;;;;;;;;;;;;;;28.48;42.59;100651.69;4274721;33;34080;-73
2023/09/26 07:26:27;;;;;;;;;;;;;;;27.70;44.47;100648.31;4275757;33;35085;-73
2023/09/26 07:28:55;;;;;;;;;;;;;;;28.50;43.20;100641.03;4273439;33;33743;-73
2023/09/26 07:31:23;;;;;;;;;;;;;;;28.48;42.56;100650.81;4272601;33;34110;-74
2023/09/26 07:33:50;;;;;;;;;;;;;;;28.80;42.09;100653.87;4262507;33;34140;-73
2023/09/26 07:36:19;;;;;;;;;;;;;;;28.98;41.70;100662.47;4271839;33;33788;-73
2023/09/26 07:38:46;;;;;;;;;;;;;;;28.82;41.97;100661.88;4275608;33;34030;-73
2023/09/26 07:41:13;;;;;;;;;;;;;;;29.33;41.20;100663.66;4274339;33;35011;-73
2023/09/26 07:43:41;;;;;;;;;;;;;;;28.98;41.62;100667.81;4275044;33;33057;-73
2023/09/26 07:46:09;;;;;;;;;;;;;;;29.34;40.73;100668.06;4279395;33;34364;-74
2023/09/26 07:48:37;;;;;;;;;;;;;;;29.60;40.71;100673.78;4268373;33;34330;-74
2023/09/26 07:51:06;;;;;;;;;;;;;;;29.47;40.75;100672.25;4275282;33;34210;-73
2023/09/26 07:53:34;;;;;;;;;;;;;;;29.59;40.35;100677.37;4255964;33;34533;-72
2023/09/26 07:56:01;;;;;;;;;;;;;;;30.08;39.55;100679.97;4262319;33;34488;-73
2023/09/26 07:58:29;;;;;;;;;;;;;;;29.97;40.04;100677.53;4279363;33;33292;-72
2023/09/26 08:01:00;;;;;;;;;;;;;;;30.05;40.01;100680.03;4271573;33;32667;-73
2023/09/26 08:03:28;;;;;;;;;;;;;;;29.86;40.25;100680.41;4262725;33;33751;-73
2023/09/26 08:05:59;;;;;;;;;;;;;;;29.81;40.43;100682.31;4275252;33;34913;-73
2023/09/26 08:08:28;;;;;;;;;;;;;;;30.15;39.95;100682.47;4280191;33;33526;-73
2023/09/26 08:10:57;;;;;;;;;;;;;;;30.09;40.10;100681.72;4280769;33;34362;-74
2023/09/26 08:13:24;;;;;;;;;;;;;;;29.95;40.34;100677.53;4269850;33;34312;-73
2023/09/26 08:15:51;;;;;;;;;;;;;;;30.09;40.43;100687.06;4289318;33;33996;-73
2023/09/26 08:18:20;;;;;;;;;;;;;;;30.28;40.44;100677.72;4282025;33;34024;-73
2023/09/26 08:20:47;;;;;;;;;;;;;;;30.71;39.25;100682.09;4289653;33;34911;-74
2023/09/26 08:23:16;;;;;;;;;;;;;;;30.89;39.26;100679.88;4277237;33;34206;-73
2023/09/26 08:25:43;;;;;;;;;;;;;;;30.80;39.10;100680.13;4277645;33;33545;-74
2023/09/26 08:28:10;;;;;;;;;;;;;;;31.68;37.62;100681.37;4283437;33;33451;-74
2023/09/26 08:30:38;;;;;;;;;;;;;;;32.28;36.30;100677.84;4282028;33;34108;-73
2023/09/26 08:33:05;;;;;;;;;;;;;;;32.17;36.40;100682.62;4277926;33;33893;-73
2023/09/26 08:35:33;;;;;;;;;;;;;;;32.15;36.20;100686.31;4278447;33;34033;-73
2023/09/26 08:38:00;;;;;;;;;;;;;;;32.48;35.92;100684.37;4279156;33;33408;-73
2023/09/26 08:40:28;;;;;;;;;;;;;;;32.45;36.02;100684.44;4282524;33;34323;-73
2023/09/26 08:42:56;;;;;;;;;;;;;;;32.82;35.43;100677.91;4282814;33;33821;-73
2023/09/26 08:45:27;;;;;;;;;;;;;;;32.94;35.12;100676.63;4277198;33;33972;-73
2023/09/26 08:47:55;;;;;;;;;;;;;;;33.18;34.57;100675.81;4272200;33;33139;-73
2023/09/26 08:50:23;;;;;;;;;;;;;;;33.06;34.70;100678.91;4270685;33;33497;-73
2023/09/26 08:52:52;;;;;;;;;;;;;;;33.36;34.18;100674.28;4281842;33;34924;-73
2023/09/26 08:55:20;;;;;;;;;;;;;;;33.36;33.83;100674.28;4286398;33;34267;-74
2023/09/26 08:57:48;;;;;;;;;;;;;;;33.41;33.78;100669.59;4264917;33;34169;-74
2023/09/26 09:00:15;;;;;;;;;;;;;;;33.61;33.48;100662.62;4274670;33;34286;-74
2023/09/26 09:02:43;;;;;;;;;;;;;;;33.73;33.06;100664.00;4283298;33;34074;-73
2023/09/26 09:05:11;;;;;;;;;;;;;;;33.82;33.29;100663.66;4278651;33;34307;-74
2023/09/26 09:07:39;;;;;;;;;;;;;;;34.06;32.60;100669.91;4286902;33;33403;-74
2023/09/26 09:10:10;;;;;;;;;;;;;;;34.21;32.41;100669.34;4279475;33;34120;-74
2023/09/26 09:12:40;;;;;;;;;;;;;;;33.42;33.35;100657.94;4283666;33;34161;-74
2023/09/26 09:15:17;;;;;;;;;;;;;;;33.80;32.79;100655.66;4286874;33;35058;-73
2023/09/26 09:17:45;;;;;;;;;;;;;;;33.95;32.94;100658.72;4268262;33;34099;-73
2023/09/26 09:20:16;;;;;;;;;;;;;;;34.23;32.12;100666.56;4268428;33;33459;-74
2023/09/26 09:22:47;;;;;;;;;;;;;;;34.26;32.48;100661.94;4272207;33;34515;-74
2023/09/26 09:25:16;;;;;;;;;;;;;;;34.30;31.87;100661.84;4266362;33;34449;-73
2023/09/26 09:27:44;;;;;;;;;;;;;;;33.93;31.77;100663.28;4265377;33;33719;-74
2023/09/26 09:30:12;;;;;;;;;;;;;;;34.20;32.10;100666.72;4276439;33;34939;-74
2023/09/26 09:32:40;;;;;;;;;;;;;;;34.51;31.95;100655.59;4259785;33;32410;-73
2023/09/26 09:35:11;;;;;;;;;;;;;;;34.58;31.85;100661.59;4273891;33;34046;-74
2023/09/26 09:37:40;;;;;;;;;;;;;;;35.17;30.84;100654.66;4275113;33;33298;-74
2023/09/26 09:40:11;;;;;;;;;;;;;;;34.88;30.33;100648.69;4271672;33;33992;-74
2023/09/26 09:42:38;;;;;;;;;;;;;;;35.14;30.64;100644.88;4274780;33;33548;-73
2023/09/26 09:45:05;;;;;;;;;;;;;;;35.13;29.64;100636.84;4267436;33;34502;-74
2023/09/26 09:47:33;;;;;;;;;;;;;;;34.99;29.50;100634.78;4278488;33;33252;-74
2023/09/26 09:50:01;;;;;;;;;;;;;;;35.11;29.90;100630.66;4267492;33;34288;-74
2023/09/26 09:52:30;;;;;;;;;;;;;;;35.20;30.01;100638.38;4287903;33;35448;-74
2023/09/26 09:54:58;;;;;;;;;;;;;;;35.54;29.43;100632.31;4284126;33;34370;-74
2023/09/26 09:57:25;;;;;;;;;;;;;;;35.25;29.45;100630.94;4287517;33;33016;-73
2023/09/26 09:59:52;;;;;;;;;;;;;;;35.50;28.87;100622.63;4277317;33;34045;-73
2023/09/26 10:02:21;;;;;;;;;;;;;;;35.09;29.66;100619.09;4288299;33;34086;-73
2023/09/26 10:04:55;;;;;;;;;;;;;;;34.83;30.17;100618.41;4273396;33;34621;-74
2023/09/26 10:07:23;;;;;;;;;;;;;;;35.42;29.00;100617.59;4259993;33;33958;-73
2023/09/26 10:09:51;;;;;;;;;;;;;;;35.11;29.40;100617.19;4285949;33;35722;-74
2023/09/26 10:12:18;;;;;;;;;;;;;;;35.14;29.18;100606.31;4275098;33;33513;-74
2023/09/26 10:14:46;;;;;;;;;;;;;;;35.05;29.41;100613.84;4267038;33;35122;-73
2023/09/26 10:17:14;;;;;;;;;;;;;;;35.37;29.21;100608.88;4261253;33;33491;-73
2023/09/26 10:19:42;;;;;;;;;;;;;;;35.69;28.33;100598.44;4273142;33;33896;-72
2023/09/26 10:22:19;;;;;;;;;;;;;;;35.01;29.00;100598.75;4271735;33;34978;-72
2023/09/26 10:24:47;;;;;;;;;;;;;;;35.30;29.22;100596.63;4273722;33;34316;-73
2023/09/26 10:27:35;;;;;;;;;;;;;;;35.65;28.62;100602.19;4271296;33;33311;-73
2023/09/26 10:30:23;;;;;;;;;;;;;;;35.75;28.01;100592.75;4274245;33;34850;-73
2023/09/26 10:32:50;;;;;;;;;;;;;;;36.24;27.30;100594.03;4268421;33;33212;-73
2023/09/26 10:35:24;;;;;;;;;;;;;;;36.27;26.98;100593.91;4273325;33;34491;-72
2023/09/26 10:38:18;;;;;;;;;;;;;;;35.70;27.91;100594.81;4270364;33;33618;-73
2023/09/26 10:40:46;;;;;;;;;;;;;;;36.35;27.38;100580.88;4265976;33;33938;-72
2023/09/26 10:43:14;;;;;;;;;;;;;;;35.64;26.81;100584.28;4274288;33;34979;-72
2023/09/26 10:46:01;;;;;;;;;;;;;;;36.30;26.29;100574.88;4275231;33;33992;-72
2023/09/26 10:48:29;;;;;;;;;;;;;;;35.60;26.18;100585.34;4275604;33;33700;-73
2023/09/26 10:50:58;;;;;;;;;;;;;;;35.76;26.72;100575.63;4264164;33;34702;-72
2023/09/26 10:53:26;;;;;;;;;;;;;;;36.14;26.77;100578.31;4262397;33;33899;-72
2023/09/26 10:55:54;;;;;;;;;;;;;;;36.41;26.05;100569.78;4260349;33;34524;-72
2023/09/26 10:58:21;;;;;;;;;;;;;;;36.52;26.32;100564.72;4282924;33;33645;-72
2023/09/26 11:00:52;;;;;;;;;;;;;;;36.54;26.17;100570.03;4266492;33;34210;-72
2023/09/26 11:03:20;;;;;;;;;;;;;;;36.88;24.77;100563.78;4280594;33;34909;-73
2023/09/26 11:05:47;;;;;;;;;;;;;;;36.40;26.08;100568.91;4281992;33;34606;-73
2023/09/26 11:08:15;;;;;;;;;;;;;;;36.68;25.30;100566.66;4280952;33;34000;-73
2023/09/26 11:10:48;;;;;;;;;;;;;;;36.64;25.76;100565.03;4280708;33;34026;-72
2023/09/26 11:13:16;;;;;;;;;;;;;;;36.79;25.57;100564.28;4278602;33;33858;-72
2023/09/26 11:15:45;;;;;;;;;;;;;;;36.68;24.56;100561.25;4262484;33;33952;-73
2023/09/26 11:18:13;;;;;;;;;;;;;;;36.79;24.42;100558.87;4283934;33;33209;-73
2023/09/26 11:20:40;;;;;;;;;;;;;;;36.54;25.89;100545.75;4278856;33;34657;-73
2023/09/26 11:23:41;;;;;;;;;;;;;;;36.73;25.79;100543.00;4274265;33;34240;-72
2023/09/26 11:26:08;;;;;;;;;;;;;;;36.82;24.75;100545.22;4284146;33;34561;-72
2023/09/26 11:28:36;;;;;;;;;;;;;;;36.88;24.52;100544.91;4264641;33;33536;-72
2023/09/26 11:31:03;;;;;;;;;;;;;;;36.97;24.97;100547.12;4281953;33;34843;-73
2023/09/26 11:33:32;;;;;;;;;;;;;;;36.19;24.31;100543.03;4264985;33;33634;-73
2023/09/26 11:36:01;;;;;;;;;;;;;;;36.56;23.90;100544.72;4275755;33;32611;-73
2023/09/26 11:38:30;;;;;;;;;;;;;;;36.35;24.10;100535.03;4279438;33;33967;-72
2023/09/26 11:40:57;;;;;;;;;;;;;;;36.30;25.59;100543.38;4284454;33;34180;-73
2023/09/26 11:43:25;;;;;;;;;;;;;;;36.94;23.85;100544.56;4273249;33;35040;-73
2023/09/26 11:46:04;;;;;;;;;;;;;;;37.23;22.92;100535.87;4280274;33;34125;-73
2023/09/26 11:48:32;;;;;;;;;;;;;;;36.86;24.51;100529.72;4273074;33;33169;-73
2023/09/26 11:50:59;;;;;;;;;;;;;;;36.92;24.25;100526.72;4272252;33;33595;-73
2023/09/26 11:53:29;;;;;;;;;;;;;;;37.10;24.54;100522.13;4272238;33;34972;-74
2023/09/26 11:55:57;;;;;;;;;;;;;;;37.02;24.70;100521.69;4278327;33;33478;-72
2023/09/26 11:58:25;;;;;;;;;;;;;;;36.96;24.64;100523.75;4268756;33;32722;-73
2023/09/26 12:00:52;;;;;;;;;;;;;;;37.12;24.83;100514.81;4275960;33;33842;-73
2023/09/26 12:03:19;;;;;;;;;;;;;;;37.12;23.77;100507.56;4276363;33;34209;-73
2023/09/26 12:05:47;;;;;;;;;;;;;;;37.24;23.81;100514.16;4262635;33;34526;-73
2023/09/26 12:08:14;;;;;;;;;;;;;;;37.10;24.38;100508.63;4276409;33;33724;-74
2023/09/26 12:10:43;;;;;;;;;;;;;;;37.08;23.42;100499.75;4274082;33;34717;-74
2023/09/26 12:13:10;;;;;;;;;;;;;;;37.12;23.93;100495.91;4274050;33;33998;-74
2023/09/26 12:15:39;;;;;;;;;;;;;;;37.38;22.80;100498.06;4271741;33;34905;-74
2023/09/26 12:18:07;;;;;;;;;;;;;;;36.15;23.70;100488.34;4273758;33;33325;-74
2023/09/26 12:20:34;;;;;;;;;;;;;;;35.78;23.31;100490.19;4260803;33;35014;-74
2023/09/26 12:23:02;;;;;;;;;;;;;;;36.45;23.93;100489.56;4263754;33;33706;-72
2023/09/26 12:25:30;;;;;;;;;;;;;;;36.67;24.87;100494.75;4261710;33;34607;-73
2023/09/26 12:27:58;;;;;;;;;;;;;;;36.25;25.20;100482.50;4261610;33;33689;-73
2023/09/26 12:30:25;;;;;;;;;;;;;;;36.83;24.27;100490.25;4275417;33;34169;-72
2023/09/26 12:32:52;;;;;;;;;;;;;;;36.64;24.53;100484.06;4274274;33;34528;-73
2023/09/26 12:35:20;;;;;;;;;;;;;;;36.72;24.75;100476.47;4264215;33;33673;-74
2023/09/26 12:37:47;;;;;;;;;;;;;;;37.26;23.83;100487.06;4275543;33;34338;-73
2023/09/26 12:40:15;;;;;;;;;;;;;;;37.58;22.33;100482.56;4260861;33;34271;-74
2023/09/26 12:42:43;;;;;;;;;;;;;;;37.57;22.93;100483.50;4274684;33;34198;-74
2023/09/26 12:45:10;;;;;;;;;;;;;;;37.39;21.32;100477.31;4274527;33;34496;-74